Latest Coastal Weather Observations for Maatsuyker Island

IDT60701

Issued at 4:52 am EST Thursday 3 September 2026 (issued every 10 minutes, with the page automatically refreshed every 10 minutes)

About coastal observations | Map of coastal stations | Coastal observations for TAS | Marine services | Other Formats
Station Details ID: 094041 Name: MAATSUYKER ISLAND LIGHTHOUSE Lat: -43.66 Lon: 146.27 Height: 146.5 m
Data from the previous 72 hours. | See also: Recent months at Maatsuyker Island
Date/Time
EST
Wind Sea
Height
m
Swell Vis
km
Cloud Weather Temp
°C
Press
MSL
hPa
Rain since
9am
mm
Dir  Spd
kts
Gust
kts
Height
m
Period
s
Dir
03/04:48am NW 46 54 - - - - - - - 10.0 989.5 5.0
03/04:38am NW 46 56 - - - - - - - 9.8 989.7 5.0
03/04:30am NW 49 56 - - - - - - - 9.6 989.8 5.0
03/04:20am NW 48 57 - - - - - - - 9.5 989.6 5.0
03/04:00am NW 48 58 - - - - - - - 9.4 989.4 4.8
03/03:51am NW 51 67 - - - - - - - 8.9 988.4 4.2
03/03:42am NNW 43 68 - - - - - - - 9.2 987.4 3.8
03/03:41am NNW 41 68 - - - - - - - 10.2 987.6 3.6
03/03:30am NNW 39 53 - - - - - - - 10.8 988.0 1.8
03/03:00am NW 42 55 - - - - - - - 11.7 988.5 1.0
03/02:30am NNW 35 50 - - - - - - - 11.4 990.0 1.0
03/02:00am NNW 39 53 - - - - - - - 11.2 991.1 1.0
03/01:30am NNW 44 57 - - - - - - - 11.9 990.8 0.8
03/01:00am NNW 42 54 - - - - - - - 11.5 991.3 0.8
03/12:30am NW 43 59 - - - - - - - 11.4 991.8 0.8
03/12:00am NNW 36 53 - - - - - - - 11.2 992.8 0.8
 
Date/Time
EST
Wind Sea
Height
m
Swell Vis
km
Cloud Weather Temp
°C
Press
MSL
hPa
Rain since
9am
mm
Dir  Spd
kts
Gust
kts
Height
m
Period
s
Dir
02/11:30pm NNW 37 54 - - - - - - - 11.7 993.8 0.8
02/11:00pm NW 37 46 - - - - - - - 11.6 994.3 0.8
02/10:30pm NNW 32 43 - - - - - - - 11.1 995.6 0.8
02/10:00pm NNW 33 42 - - - - - - - 10.9 996.2 0.6
02/09:30pm NW 29 39 - - - - - - - 11.4 996.8 0.4
02/09:19pm NW 32 41 - - - - - - - 11.1 996.8 0.4
02/09:00pm NW 32 45 - - - - - - - 11.2 996.8 0.4
02/08:30pm NW 36 48 - - - - - - - 11.8 997.0 0.4
02/08:00pm NW 37 47 - - - - - - - 11.6 997.0 0.4
02/07:30pm NNW 33 45 - - - - - - - 11.1 997.4 0.4
02/07:10pm NW 38 49 - - - - - - - 10.8 997.5 0.4
02/07:06pm NW 38 46 - - - - - - - 10.7 997.8 0.4
02/07:00pm NW 37 46 - - - - - - - 10.9 997.4 0.2
02/06:30pm NW 39 49 - - - - - - - 11.6 997.9 0.2
02/06:00pm NW 40 51 - - - - - - - 11.5 997.8 0.2
02/05:30pm NW 38 51 - - - - - - - 11.6 997.7 0.2
02/05:00pm NW 42 52 - - - - - - - 11.5 997.8 0.2
02/04:30pm NW 40 51 - - - - - - - 11.5 998.4 0.2
02/04:00pm NW 40 53 - - - - - - - 11.4 998.6 0.2
02/03:40pm NW 38 48 - - - - - - - 11.4 999.0 0.2
02/03:35pm NW 40 48 - - - - - - - 11.4 998.5 0.2
02/03:30pm NW 40 47 - - - - - - - 11.4 998.8 0.2
02/03:07pm NW 41 51 - - - - - - - 10.5 998.6 0.2
02/03:06pm NW 41 50 - - - - - - - 10.5 999.0 0.2
02/03:00pm NW 43 51 - - - - - - - 10.5 999.3 0.2
02/02:47pm NW 42 53 - - - - - - - 10.9 998.8 0.2
02/02:46pm NW 41 50 - - - - - - - 10.9 998.8 0.2
02/02:30pm NW 40 51 - - - - - - - 10.7 999.2 0.2
02/02:22pm NW 38 49 - - - - - - - 11.4 999.0 0.2
02/02:15pm NW 38 47 - - - - - - - 11.4 999.3 0.2
02/02:00pm NW 41 51 - - - - - - - 11.1 999.2 0.2
02/01:30pm NW 43 54 - - - - - - - 11.5 999.3 0.2
02/01:00pm NW 37 47 - - - - - - - 11.6 1000.0 0.2
02/12:30pm NW 36 47 - - - - - - - 11.2 1000.6 0.2
02/12:21pm NW 37 47 - - - - - - - 11.2 1000.6 0.2
02/12:20pm NW 38 47 - - - - - - - 11.1 1000.7 0.2
02/12:00pm NNW 34 45 - - - - - - - 11.1 1000.7 0.2
02/11:43am NNW 32 42 - - - - - - - 11.4 1001.2 0.2
02/11:30am NNW 34 43 - - - - - - - 10.9 1001.3 0.2
02/11:28am NW 35 43 - - - - - - - 11.0 1001.2 0.2
02/11:17am NW 33 43 - - - - - - - 10.8 1001.2 0.2
02/11:11am NW 34 42 - - - - - - - 11.1 1001.5 0.2
02/11:00am NW 34 47 - - - - - - - 11.0 1001.6 0.2
02/10:36am NW 31 41 - - - - - - - 10.3 1001.9 0.2
02/10:30am NW 34 41 - - - - - - - 9.6 1002.1 0.0
02/10:20am NW 34 43 - - - - - - - 10.6 1001.9 0.0
02/10:00am NW 34 44 - - - - - - - 10.8 1002.0 0.0
02/09:45am NW 35 45 - - - - - - - 10.8 1002.2 0.0
02/09:30am NW 37 45 - - - - - - - 10.4 1002.2 0.0
02/09:29am NW 37 45 - - - - - - - 10.4 1002.1 0.0
02/09:00am NW 37 45 3 6.0 13 SW - - - 10.6 1002.3 6.0
02/08:30am NW 39 50 - - - - - - - 9.4 1001.7 5.8
02/08:09am NW 39 49 - - - - - - - 10.2 1002.0 5.8
02/08:07am NW 39 48 - - - - - - - 10.1 1001.7 5.8
02/08:00am NW 43 55 - - - - - - - 9.6 1001.7 5.8
02/07:58am NW 45 56 - - - - - - - 9.4 1001.5 5.8
02/07:52am NW 46 56 - - - - - - - 9.2 1001.0 5.8
02/07:48am NW 41 54 - - - - - - - 10.4 1001.7 5.8
02/07:30am NW 34 44 - - - - - - - 9.8 1002.0 5.8
02/07:27am NW 36 44 - - - - - - - 9.6 1001.9 5.8
02/07:18am NW 47 59 - - - - - - - 8.9 1001.6 5.8
02/07:16am NW 50 60 - - - - - - - 8.9 1001.2 5.8
02/07:15am NW 51 60 - - - - - - - 8.9 1000.9 5.8
02/07:06am NW 46 60 - - - - - - - 8.9 1000.5 5.8
02/07:00am NW 42 50 - - - - - - - 10.7 1001.2 5.8
02/06:55am NW 39 49 - - - - - - - 10.6 1000.9 5.8
02/06:30am NW 38 46 - - - - - - - 9.3 1001.3 5.6
02/06:27am NW 38 46 - - - - - - - 9.4 1001.6 5.6
02/06:18am NW 44 55 - - - - - - - 8.8 1001.4 5.6
02/06:12am NW 41 55 - - - - - - - 8.6 1001.1 5.6
02/06:09am NW 38 51 - - - - - - - 9.7 1001.3 5.6
02/06:00am NW 36 44 5 4.5 14 SW - - - 10.3 1001.5 5.6
02/05:57am NW 36 43 - - - - - - - 10.2 1001.6 5.6
02/05:47am NW 41 51 - - - - - - - 10.1 1001.4 5.6
02/05:42am NW 43 52 - - - - - - - 9.9 1001.3 5.6
02/05:30am NW 40 52 - - - - - - - 10.2 1001.0 5.6
02/05:06am NW 45 55 - - - - - - - 10.4 1000.9 5.6
02/05:00am NW 47 55 - - - - - - - 10.5 1000.2 5.6
02/04:57am NW 46 53 - - - - - - - 10.5 1000.3 5.6
02/04:42am NW 43 53 - - - - - - - 10.4 1000.7 5.6
02/04:30am NW 43 49 - - - - - - - 10.1 1000.9 5.6
02/04:26am NW 44 49 - - - - - - - 10.1 1000.6 5.6
02/04:14am NW 39 49 - - - - - - - 10.3 1000.8 5.6
02/04:00am NW 42 50 - - - - - - - 10.2 1000.8 5.6
02/03:30am NW 44 51 - - - - - - - 10.2 1001.0 5.6
02/03:08am NW 43 49 - - - - - - - 10.2 1001.0 5.6
02/03:00am NW 41 50 - - - - - - - 10.3 1001.2 5.6
02/02:58am NW 40 50 - - - - - - - 10.3 1001.4 5.6
02/02:30am NW 40 47 - - - - - - - 10.1 1001.5 5.6
02/02:00am NW 41 47 - - - - - - - 10.3 1001.7 5.6
02/01:30am NW 40 47 - - - - - - - 10.1 1001.7 5.6
02/01:00am NW 44 48 - - - - - - - 10.1 1001.5 5.6
02/12:50am NW 43 48 - - - - - - - 10.1 1001.6 5.6
02/12:39am NW 35 45 - - - - - - - 10.0 1001.7 5.6
02/12:36am NW 32 41 - - - - - - - 9.8 1001.9 5.6
02/12:30am NW 31 39 - - - - - - - 9.7 1002.4 5.6
02/12:22am NW 37 47 - - - - - - - 9.3 1002.4 5.6
02/12:00am NW 37 41 - - - - - - - 10.2 1002.2 5.6
 
Date/Time
EST
Wind Sea
Height
m
Swell Vis
km
Cloud Weather Temp
°C
Press
MSL
hPa
Rain since
9am
mm
Dir  Spd
kts
Gust
kts
Height
m
Period
s
Dir
01/11:30pm NW 39 44 - - - - - - - 10.0 1002.3 5.6
01/11:00pm NW 39 45 - - - - - - - 9.9 1002.4 5.6
01/10:30pm NW 38 42 - - - - - - - 9.9 1002.2 5.6
01/10:00pm NW 39 43 - - - - - - - 10.0 1002.3 5.6
01/09:30pm NW 36 42 - - - - - - - 9.9 1002.7 5.6
01/09:00pm WNW 33 38 - - - - - - - 9.8 1002.4 5.6
01/08:30pm WNW 30 36 - - - - - - - 9.8 1002.4 5.6
01/08:00pm WNW 27 31 - - - - - - - 9.9 1002.3 5.6
01/07:30pm WNW 29 34 - - - - - - - 9.8 1001.6 5.6
01/07:09pm WNW 30 35 - - - - - - - 9.9 1001.1 5.6
01/07:00pm WNW 30 39 - - - - - - - 9.9 1001.1 5.6
01/06:57pm WNW 29 39 - - - - - - - 10.2 1000.8 5.6
01/06:30pm WNW 32 37 - - - - - - - 10.5 1000.1 5.4
01/06:28pm WNW 33 39 - - - - - - - 10.5 1000.0 5.4
01/06:19pm NW 42 55 - - - - - - - 10.3 999.6 5.4
01/06:14pm NW 42 55 - - - - - - - 11.8 998.4 4.8
01/06:00pm NNW 35 48 - - - - - - - 11.8 997.5 3.4
01/05:30pm NW 34 47 - - - - - - - 11.6 997.9 2.0
01/05:00pm NW 33 48 - - - - - - - 11.6 997.7 1.0
01/04:30pm NW 34 44 - - - - - - - 12.0 998.2 0.2
01/04:00pm NW 35 46 - - - - - - - 12.2 998.0 0.2
01/03:37pm NW 33 45 - - - - - - - 12.3 998.4 0.0
01/03:35pm NW 33 42 - - - - - - - 12.3 998.6 0.0
01/03:30pm NW 34 43 - - - - - - - 12.3 998.4 0.0
01/03:00pm NW 31 42 - - - - - - - 13.1 999.1 0.0
01/02:48pm NW 31 41 - - - - - - - 13.1 999.2 0.0
01/02:40pm NNW 29 38 - - - - - - - 13.6 999.3 0.0
01/02:30pm NNW 26 36 - - - - - - - 13.9 999.9 0.0
01/02:00pm NNW 29 37 - - - - - - - 13.8 1000.5 0.0
01/01:48pm NNW 34 50 - - - - - - - 13.8 1000.8 0.0
01/01:38pm NW 35 49 - - - - - - - 13.7 1001.0 0.0
01/01:36pm NW 36 51 - - - - - - - 13.6 1001.3 0.0
01/01:30pm NW 42 60 - - - - - - - 13.9 1000.7 0.0
01/01:15pm NW 48 61 - - - - - - - 14.6 1001.0 0.0
01/01:06pm NW 40 58 - - - - - - - 14.7 1000.7 0.0
01/01:05pm NW 39 58 - - - - - - - 14.5 1000.7 0.0
01/01:00pm NW 36 48 - - - - - - - 15.1 1001.5 0.0
01/12:30pm NW 37 51 - - - - - - - 15.4 1002.7 0.0
01/12:00pm NW 33 44 - - - - - - - 15.5 1003.3 0.0
01/11:30am NW 32 45 - - - - - - - 15.2 1003.9 0.0
01/11:00am NW 35 45 - - - - - - - 15.2 1004.9 0.0
01/10:30am NNW 34 45 - - - - - - - 14.7 1005.3 0.0
01/10:00am NW 34 43 - - - - - - - 14.5 1006.0 0.0
01/09:30am NW 34 47 - - - - - - - 14.3 1006.8 0.0
01/09:00am NW 32 44 2 4.5 14 SW - - - 13.9 1007.5 0.0
01/08:30am NNW 30 40 - - - - - - - 13.5 1008.3 0.0
01/08:16am NNW 31 41 - - - - - - - 13.1 1008.5 0.0
01/08:15am NNW 32 41 - - - - - - - 13.2 1008.6 0.0
01/08:00am NNW 31 41 - - - - - - - 12.8 1008.6 0.0
01/07:30am NNW 29 39 - - - - - - - 12.5 1009.2 0.0
01/07:29am NNW 29 39 - - - - - - - 12.5 1009.1 0.0
01/07:13am NNW 28 36 - - - - - - - 12.2 1009.1 0.0
01/07:00am NNW 29 39 - - - - - - - 11.8 1009.4 0.0
01/06:54am NNW 29 39 - - - - - - - 11.7 1009.4 0.0
01/06:30am NNW 27 34 - - - - - - - 11.6 1009.9 0.0
01/06:00am NW 27 34 2 4.5 14 SW - - - 11.5 1010.3 0.0
01/05:30am NNW 29 36 - - - - - - - 11.4 1010.7 0.0
01/05:00am NNW 25 31 - - - - - - - 10.8 1011.5 0.0
01/04:30am NW 22 27 - - - - - - - 10.3 1012.2 0.0
01/04:00am NW 22 30 - - - - - - - 9.3 1012.9 0.0
01/03:30am NW 26 35 - - - - - - - 9.4 1013.9 0.0
01/03:00am NW 18 26 - - - - - - - 9.5 1014.4 0.0
01/02:30am NW 20 28 - - - - - - - 9.7 1015.3 0.0
01/02:00am NW 20 27 - - - - - - - 9.7 1016.3 0.0
01/01:30am NNW 17 24 - - - - - - - 9.8 1017.3 0.0
01/01:00am NNW 18 24 - - - - - - - 9.8 1017.9 0.0
01/12:30am NNW 23 29 - - - - - - - 9.7 1018.0 0.0
01/12:00am NNW 25 32 - - - - - - - 9.7 1018.2 0.0
 
Date/Time
EST
Wind Sea
Height
m
Swell Vis
km
Cloud Weather Temp
°C
Press
MSL
hPa
Rain since
9am
mm
Dir  Spd
kts
Gust
kts
Height
m
Period
s
Dir
31/11:30pm NNW 24 32 - - - - - - - 9.6 1018.7 0.0
31/11:00pm NW 24 32 - - - - - - - 9.6 1019.4 0.0
31/10:30pm NW 24 30 - - - - - - - 9.9 1020.0 0.0
31/10:00pm NW 26 34 - - - - - - - 9.9 1020.6 0.0
31/09:30pm NW 25 33 - - - - - - - 10.0 1021.0 0.0
31/09:00pm NW 23 31 - - - - - - - 9.9 1021.6 0.0
31/08:30pm NW 21 27 - - - - - - - 10.3 1021.8 0.0
31/08:00pm NW 21 29 - - - - - - - 10.3 1022.2 0.0
31/07:42pm NNW 19 25 - - - - - - - 10.3 1022.4 0.0
31/07:30pm NNW 19 29 - - - - - - - 10.5 1022.5 0.0
31/07:28pm NNW 20 30 - - - - - - - 10.5 1022.6 0.0
31/07:00pm NNW 24 32 - - - - - - - 10.7 1022.3 0.0
31/06:30pm NW 26 35 - - - - - - - 10.6 1022.5 0.0
31/06:00pm NW 25 32 - - - - - - - 10.8 1022.3 0.0
31/05:35pm NW 25 32 - - - - - - - 10.8 1022.5 0.0
31/05:30pm NW 27 32 - - - - - - - 10.7 1022.4 0.0
31/05:15pm NW 27 37 - - - - - - - 10.8 1022.3 0.0
31/05:03pm NW 25 31 - - - - - - - 11.0 1022.6 0.0
31/05:00pm NW 25 31 - - - - - - - 11.0 1022.6 0.0
31/04:49pm NW 27 37 - - - - - - - 11.0 1022.7 0.0
31/04:30pm NW 29 35 - - - - - - - 11.0 1022.9 0.0
31/04:08pm NW 30 36 - - - - - - - 10.9 1022.7 0.0
31/04:00pm NW 31 40 - - - - - - - 10.8 1022.6 0.0
31/03:58pm NW 32 42 - - - - - - - 10.8 1022.7 0.0
31/03:49pm NW 33 42 - - - - - - - 10.3 1022.5 0.0
31/03:36pm NW 37 47 - - - - - - - 10.3 1022.5 0.0
31/03:30pm NW 39 47 - - - - - - - 10.4 1022.2 0.0
31/03:00pm NW 35 42 - - - - - - - 11.3 1022.5 0.0
31/02:30pm NW 33 39 - - - - - - - 11.9 1022.8 0.0
31/02:00pm NW 31 37 - - - - - - - 12.3 1023.0 0.0
31/01:30pm NW 29 36 - - - - - - - 12.3 1023.3 0.0
31/01:00pm NW 30 36 - - - - - - - 12.0 1023.5 0.0
31/12:56pm NW 29 35 - - - - - - - 12.0 1023.6 0.0
31/12:44pm NW 31 41 - - - - - - - 11.8 1023.5 0.0
31/12:30pm NW 29 36 - - - - - - - 11.8 1023.9 0.0
31/12:00pm NW 30 37 - - - - - - - 11.2 1024.4 0.0
31/11:30am NNW 28 35 - - - - - - - 11.2 1024.6 0.0
31/11:19am NW 30 35 - - - - - - - 11.2 1024.7 0.0
31/11:01am NW 30 40 - - - - - - - 11.1 1025.0 0.0
31/11:00am NW 31 40 - - - - - - - 11.0 1024.7 0.0
31/10:42am NW 30 35 - - - - - - - 10.7 1025.3 0.0
31/10:30am NW 32 41 - - - - - - - 10.7 1025.1 0.0
31/10:24am NW 31 41 - - - - - - - 10.7 1025.1 0.0
31/10:00am NW 33 40 - - - - - - - 10.5 1025.3 0.0
31/09:30am NW 31 36 - - - - - - - 10.7 1025.5 0.0
31/09:00am NW 31 37 3 4.0 11 SW - - - 10.5 1025.7 0.0
31/08:30am NW 32 38 - - - - - - - 10.3 1025.9 0.0
31/08:00am NW 29 36 - - - - - - - 10.3 1025.9 0.0
31/07:30am NW 33 39 - - - - - - - 10.4 1025.5 0.0
31/07:00am NW 33 39 - - - - - - - 10.0 1025.2 0.0
31/06:30am NW 33 38 - - - - - - - 10.3 1024.7 0.0
31/06:00am NW 36 41 3 4.0 13 SW - - - 10.3 1024.2 0.0
31/05:30am NW 37 43 - - - - - - - 10.4 1024.3 0.0
31/05:00am NW 35 41 - - - - - - - 10.4 1024.2 0.0

Other formats

Comma delimited format used in spreadsheet applications
http://www.bom.gov.au/fwo/IDT60701/IDT60701.94962.axf

JavaScript Object Notation format (JSON) in row-major order
http://www.bom.gov.au/fwo/IDT60701/IDT60701.94962.json

Data quality

Most of these data are generated automatically and are frequently updated. Quality checks on data are not normally performed. It is possible for incorrect values to appear. Refer to information at About Latest Weather Observations and please check the disclaimer before using these data.